»·PEaware :: N989SM L52-L88

N989SM :: L52-L88

FLIGHT INFORMATION

Flight Status: Arrived
Operator: Privately registered:
United States
More flights under this callsign
Pilot: Anonymous 45636 (45636)
Aircraft: PIPER PA-24 COMMANCHE
(PA24)
More flights by this aircraft type
Origin: L52 Oceano Co
United States
Destination: L88 New Cuyama
United States
More flights between these airports :: More routes between these airports
Route:
File this flight plan on PilotEdge
Remarks:
Altitude:
(Current/Filed)
5,500ft
Speed:
(Current/Filed)
160kts
Departed: 19-Nov-23 04:52 PM
Arrived: 19-Nov-23 05:32 PM
Distance/Time
Traveled:
47nm/0:39
Distance/Time
To Go:
Arrived

Flight Plot

Page will automatically refresh every two minutes.


Map Options




Map Legend


Flown Route
Filed Route
Departure Airport
Arrival Airport
Navaid (VOR, NDB)
Fix

Horizontal Profiles

Position Reports

Time Latitude Longitude Heading Altitude Ground
Speed
19-Nov-23 16:39 35.103072 -120.624058 208 21ft 0kts
19-Nov-23 16:40 35.103072 -120.624058 208 21ft 0kts
19-Nov-23 16:41 35.103072 -120.624058 208 21ft 0kts
19-Nov-23 16:42 35.103072 -120.624058 208 21ft 0kts
19-Nov-23 16:42 35.103072 -120.624058 208 21ft 0kts
19-Nov-23 16:43 35.103072 -120.624058 208 21ft 0kts
19-Nov-23 16:45 35.103072 -120.624058 208 21ft 0kts
19-Nov-23 16:46 35.103072 -120.624058 208 21ft 0kts
19-Nov-23 16:47 35.103072 -120.624058 208 21ft 0kts
19-Nov-23 16:47 35.102971 -120.624059 145 22ft 0kts
19-Nov-23 16:48 35.102371 -120.624246 211 25ft 9kts
19-Nov-23 16:49 35.099778 -120.619946 128 20ft 10kts
19-Nov-23 16:51 35.099621 -120.619515 72 19ft 4kts
19-Nov-23 16:52 35.104517 -120.627634 310 202ft 67kts
19-Nov-23 16:52 35.097309 -120.648548 231 850ft 99kts
19-Nov-23 16:53 35.072647 -120.658678 144 1800ft 118kts
19-Nov-23 16:54 35.055204 -120.631038 79 2908ft 96kts
19-Nov-23 16:55 35.062708 -120.603450 51 3729ft 84kts
19-Nov-23 16:56 35.072947 -120.577483 57 4408ft 85kts
19-Nov-23 16:57 35.081565 -120.550355 47 5106ft 84kts
19-Nov-23 16:58 35.093465 -120.525146 41 5555ft 93kts
19-Nov-23 16:59 35.097057 -120.489205 92 5628ft 128kts
19-Nov-23 17:00 35.083598 -120.444633 74 5848ft 146kts
19-Nov-23 17:01 35.091766 -120.398366 61 5585ft 140kts
19-Nov-23 17:02 35.092217 -120.351847 96 5486ft 149kts
19-Nov-23 17:03 35.076698 -120.304076 74 5604ft 144kts
19-Nov-23 17:04 35.076610 -120.256552 71 5622ft 139kts
19-Nov-23 17:05 35.080146 -120.208285 65 5572ft 141kts
19-Nov-23 17:06 35.089781 -120.163244 59 5472ft 129kts
19-Nov-23 17:07 35.098887 -120.123321 58 5560ft 117kts
19-Nov-23 17:08 35.105214 -120.082735 67 5636ft 129kts
19-Nov-23 17:09 35.104273 -120.037522 106 5464ft 144kts
19-Nov-23 17:10 35.083230 -119.993829 103 5541ft 151kts
19-Nov-23 17:11 35.072328 -119.947209 80 5601ft 138kts
19-Nov-23 17:12 35.075274 -119.902526 63 5629ft 129kts
19-Nov-23 17:13 35.091459 -119.865361 60 5525ft 125kts
19-Nov-23 17:14 35.060642 -119.836033 131 5685ft 154kts
19-Nov-23 17:15 35.030404 -119.798963 125 5700ft 156kts
19-Nov-23 17:16 35.001019 -119.760233 112 5911ft 153kts
19-Nov-23 17:17 34.979417 -119.717296 110 5122ft 135kts
19-Nov-23 17:18 34.957337 -119.684984 162 4248ft 133kts
19-Nov-23 17:19 34.938477 -119.707773 316 3972ft 108kts
19-Nov-23 17:20 34.959034 -119.703599 55 3864ft 90kts
19-Nov-23 17:21 34.946131 -119.676462 98 3804ft 97kts
19-Nov-23 17:22 34.942026 -119.645202 88 3734ft 87kts
19-Nov-23 17:23 34.931103 -119.645302 317 3412ft 104kts
19-Nov-23 17:24 34.938078 -119.677290 295 3158ft 93kts
19-Nov-23 17:25 34.949778 -119.704754 309 3261ft 86kts
19-Nov-23 17:26 34.964218 -119.697675 95 3457ft 78kts
19-Nov-23 17:27 34.950827 -119.672381 107 3348ft 88kts
19-Nov-23 17:28 34.942812 -119.644405 92 3433ft 90kts
19-Nov-23 17:29 34.927453 -119.642032 282 3319ft 106kts
19-Nov-23 17:30 34.935018 -119.673250 298 2443ft 79kts
19-Nov-23 17:31 34.941965 -119.690539 295 2159ft 18kts
19-Nov-23 17:32 34.943171 -119.691043 22 2154ft 5kts
19-Nov-23 17:33 34.943226 -119.691245 144 2154ft 0kts
19-Nov-23 17:34 34.943226 -119.691245 144 2154ft 0kts
19-Nov-23 17:35 34.943226 -119.691245 144 2154ft 0kts
19-Nov-23 17:36 34.943226 -119.691245 144 2154ft 0kts

Navigation Log

Ident Type
Flight plan parsing failed, navigation log unavailable